Narrows, Virginia
Current Conditions -  °F | °C
As of 4:35 AM on Friday 28 Nov 2014 (Local Time) from KPSK Reporting Station
Overcast Overcast  
Wind Chill: 18°   Ceiling: 3300
Heat Index: 28°   Visibility: 10mi
Dew Point: 17°   Wind: 12mph
Humidity: 62%   Direction: 320°NW
Pressure: 30.25"   Gusts: NA
Location:  37.33°N, 80.81°W
Report Text: KPSK 280935Z AUTO 32010KT 10SM OVC033 M02/M08 A3025 RMK AO2 T10201084
Loading
Personal Weather Stations






























Interactive Weather Map New forecast layout! Learn more

10-Day Weather Forecast

Advertisements
Track Severe Weather on mobile